Time;durP1;ratioP1;P1;durP2;ratioP2;P2;SDS_P1;SDS_P2;PMS_P1;PMS_P2;Temp;Humidity;BMP_temperature;BMP_pressure;BME280_temperature;BME280_humidity;BME280_pressure;Samples;Min_cycle;Max_cycle;Signal;HPM_P1;HPM_P2
2022/01/25 06:03:07;;;;;;;;;;;2.90;99.90;;;;;;5853032;23;20300;-86
2022/01/25 06:05:41;;;;;;;;;;;2.00;99.90;;;;;;4994223;28;20273;-86
2022/01/25 06:08:30;;;;;;;;;;;3.20;99.90;;;;;;4994250;28;19942;-86
2022/01/25 06:11:05;;;;;;;;;;;2.70;99.90;;;;;;4993980;28;19926;-86
2022/01/25 06:13:40;;;;;;;;;;;2.80;99.90;;;;;;4994294;28;20012;-86
2022/01/25 06:16:10;;;;;;;;;;;3.30;99.90;;;;;;4994619;28;19925;-85
2022/01/25 06:18:50;;;;;;;;;;;3.20;99.90;;;;;;4994078;28;19925;-86
2022/01/25 06:21:19;;;;;;;;;;;3.00;99.90;;;;;;4994040;28;20004;-86
2022/01/25 06:23:55;;;;;;;;;;;3.20;99.90;;;;;;4974910;28;19926;-84
2022/01/25 06:26:25;;;;;;;;;;;3.50;99.90;;;;;;4988401;28;19937;-85
2022/01/25 06:28:53;;;;;;;;;;;3.70;99.90;;;;;;4994539;28;19966;-85
2022/01/25 06:31:21;;;;;;;;;;;3.50;99.90;;;;;;4993948;28;19960;-86
2022/01/25 06:33:51;;;;;;;;;;;3.80;99.90;;;;;;4995422;28;19925;-85
2022/01/25 06:36:19;;;;;;;;;;;3.30;99.90;;;;;;4997877;28;19932;-85
2022/01/25 06:39:03;;;;;;;;;;;3.10;99.90;;;;;;4997889;28;19932;-85
2022/01/25 06:41:38;;;;;;;;;;;3.10;99.90;;;;;;4997053;28;19925;-85
2022/01/25 06:44:05;;;;;;;;;;;3.20;99.90;;;;;;4997989;28;19926;-85
2022/01/25 06:49:49;;;;;;;;;;;3.30;99.90;;;;;;4996681;28;20002;-85
2022/01/25 06:52:23;;;;;;;;;;;2.10;99.90;;;;;;4997794;28;19942;-85
2022/01/25 06:54:55;;;;;;;;;;;3.00;99.90;;;;;;4997369;28;19926;-85
2022/01/25 06:57:25;;;;;;;;;;;3.20;99.90;;;;;;5024419;22;19965;-85
2022/01/25 06:59:54;;;;;;;;;;;3.30;99.90;;;;;;4997580;28;19984;-85
2022/01/25 07:02:31;;;;;;;;;;;3.10;99.90;;;;;;4997610;28;19976;-85
2022/01/25 07:05:09;;;;;;;;;;;3.40;99.90;;;;;;4997974;28;19933;-85
2022/01/25 07:07:47;;;;;;;;;;;3.30;99.90;;;;;;5015133;28;19929;-85
2022/01/25 07:10:21;;;;;;;;;;;3.60;99.90;;;;;;5026393;22;19925;-85
2022/01/25 07:12:55;;;;;;;;;;;3.60;99.90;;;;;;5016689;28;19933;-85
2022/01/25 07:15:49;;;;;;;;;;;3.30;99.90;;;;;;5016210;28;19953;-85
2022/01/25 07:31:41;;;;;;;;;;;2.80;99.90;;;;;;5024702;28;19920;-85
2022/01/25 11:19:41;;;;;;;;;;;3.00;99.90;;;;;;5513419;23;20304;-84
2022/01/25 14:25:35;;;;;;;;;;;4.80;99.90;;;;;;4873995;28;20948;-84
2022/01/25 14:28:42;;;;;;;;;;;;;;;;;;;;;
2022/01/25 14:34:37;;;;;;;;;;;4.80;99.90;;;;;;4903536;28;20189;-85
2022/01/25 14:37:50;;;;;;;;;;;4.20;99.90;;;;;;4920536;28;20477;-86
2022/01/25 14:40:31;;;;;;;;;;;3.40;99.90;;;;;;4887219;28;20641;-84
2022/01/25 14:42:59;;;;;;;;;;;4.70;99.90;;;;;;4911226;28;19926;-84
2022/01/25 14:48:24;;;;;;;;;;;4.90;99.90;;;;;;4848267;29;19927;-84
2022/01/25 14:51:00;;;;;;;;;;;4.70;99.90;;;;;;4906126;28;19996;-83
2022/01/25 14:53:27;;;;;;;;;;;4.70;99.90;;;;;;4906438;28;20658;-84
2022/01/25 14:55:59;;;;;;;;;;;4.60;99.90;;;;;;4908868;28;20014;-84
2022/01/25 15:01:12;;;;;;;;;;;4.40;99.90;;;;;;4917721;28;20009;-83
2022/01/25 15:03:39;;;;;;;;;;;4.60;99.90;;;;;;4919881;28;20041;-84
2022/01/25 15:06:07;;;;;;;;;;;4.60;99.90;;;;;;4917370;28;19933;-85
2022/01/25 15:08:34;;;;;;;;;;;4.70;99.90;;;;;;4907927;28;19930;-84
2022/01/25 15:11:01;;;;;;;;;;;4.90;99.90;;;;;;4911910;28;20014;-84
2022/01/25 15:13:29;;;;;;;;;;;4.90;99.90;;;;;;4914810;28;19930;-85
2022/01/25 15:15:59;;;;;;;;;;;5.00;99.90;;;;;;4912873;28;19937;-84
2022/01/25 15:18:27;;;;;;;;;;;5.20;99.90;;;;;;4914579;28;19926;-85
2022/01/25 15:20:54;;;;;;;;;;;5.00;99.90;;;;;;4916391;28;19926;-84
2022/01/25 15:23:24;;;;;;;;;;;5.00;99.90;;;;;;4908086;28;19926;-84
2022/01/25 15:25:55;;;;;;;;;;;4.90;99.90;;;;;;4912803;28;19926;-85
2022/01/25 15:28:22;;;;;;;;;;;4.90;99.90;;;;;;4901719;28;20033;-86
2022/01/25 15:30:49;;;;;;;;;;;5.10;99.90;;;;;;4912965;28;21082;-85
2022/01/25 15:33:16;;;;;;;;;;;4.60;99.90;;;;;;4912478;28;20484;-85
2022/01/25 15:35:43;;;;;;;;;;;4.80;99.90;;;;;;4914118;28;19926;-85
2022/01/25 15:38:10;;;;;;;;;;;4.80;99.90;;;;;;4912729;28;19941;-85
2022/01/25 15:40:38;;;;;;;;;;;4.70;99.90;;;;;;4910519;28;20999;-85
2022/01/25 15:43:07;;;;;;;;;;;4.80;99.90;;;;;;4910380;28;20305;-83
2022/01/25 15:45:53;;;;;;;;;;;4.70;99.90;;;;;;4919613;28;19932;-84
2022/01/25 15:48:21;;;;;;;;;;;4.80;99.90;;;;;;4910169;28;19946;-85
2022/01/25 15:50:48;;;;;;;;;;;4.80;99.90;;;;;;4906274;28;20037;-87
2022/01/25 15:53:15;;;;;;;;;;;4.80;99.90;;;;;;4922150;28;20459;-87
2022/01/25 15:55:43;;;;;;;;;;;5.00;99.90;;;;;;4921780;28;19926;-85
2022/01/25 15:58:10;;;;;;;;;;;4.90;99.90;;;;;;4909000;28;19934;-88
2022/01/25 16:00:37;;;;;;;;;;;4.90;99.90;;;;;;4910996;28;19941;-88
2022/01/25 16:03:07;;;;;;;;;;;5.00;99.90;;;;;;4912989;28;20380;-88
2022/01/25 16:05:34;;;;;;;;;;;5.00;99.90;;;;;;4918820;28;19930;-86
2022/01/25 16:08:01;;;;;;;;;;;5.00;99.90;;;;;;4913155;28;19937;-84
2022/01/25 16:10:31;;;;;;;;;;;5.00;99.90;;;;;;4906142;28;19934;-85
2022/01/25 16:13:02;;;;;;;;;;;5.10;99.90;;;;;;4904464;28;20689;-84
2022/01/25 16:15:29;;;;;;;;;;;5.20;99.90;;;;;;4917442;28;20062;-86
2022/01/25 16:17:55;;;;;;;;;;;4.90;99.90;;;;;;4908203;28;20595;-84
2022/01/25 16:20:22;;;;;;;;;;;4.90;99.90;;;;;;4914160;28;20312;-86
2022/01/25 16:22:49;;;;;;;;;;;4.90;99.90;;;;;;4914873;28;20206;-87
2022/01/25 16:25:16;;;;;;;;;;;5.20;99.90;;;;;;4907391;28;19941;-85
2022/01/25 16:27:43;;;;;;;;;;;5.10;99.90;;;;;;4903257;28;19927;-86
2022/01/25 16:30:12;;;;;;;;;;;4.90;99.90;;;;;;4913193;28;20954;-85
2022/01/25 16:32:43;;;;;;;;;;;6.40;99.90;;;;;;4902932;28;19933;-87
2022/01/25 16:35:11;;;;;;;;;;;5.00;99.90;;;;;;4898604;28;19937;-86
2022/01/25 16:37:38;;;;;;;;;;;5.00;99.90;;;;;;4899668;28;19923;-86
2022/01/25 16:40:06;;;;;;;;;;;5.10;99.90;;;;;;4897305;28;20013;-87
2022/01/25 16:42:33;;;;;;;;;;;4.80;99.90;;;;;;4908781;28;21369;-85
2022/01/25 16:45:00;;;;;;;;;;;4.40;99.90;;;;;;4905133;28;21007;-86
2022/01/25 16:47:32;;;;;;;;;;;4.90;99.90;;;;;;4906074;28;19922;-85
2022/01/25 16:50:00;;;;;;;;;;;5.20;99.90;;;;;;4903351;28;21230;-85
2022/01/25 16:52:27;;;;;;;;;;;4.80;99.90;;;;;;4919518;28;20027;-85
2022/01/25 16:54:54;;;;;;;;;;;4.80;99.90;;;;;;4912479;28;19937;-86
2022/01/25 16:57:21;;;;;;;;;;;4.70;99.90;;;;;;4926124;28;19926;-85
2022/01/25 16:59:48;;;;;;;;;;;4.60;99.90;;;;;;4922378;28;19926;-85
2022/01/25 17:02:15;;;;;;;;;;;4.60;99.90;;;;;;4913036;28;20690;-86
2022/01/25 17:04:43;;;;;;;;;;;4.60;99.90;;;;;;4916914;28;20051;-84
2022/01/25 17:07:10;;;;;;;;;;;4.50;99.90;;;;;;4915621;28;20115;-84
2022/01/25 17:09:38;;;;;;;;;;;4.50;99.90;;;;;;4916336;28;20112;-84
2022/01/25 17:12:07;;;;;;;;;;;4.60;99.90;;;;;;4913583;28;20025;-84
2022/01/25 17:14:34;;;;;;;;;;;4.60;99.90;;;;;;4914011;28;20441;-85
2022/01/25 17:17:02;;;;;;;;;;;4.60;99.90;;;;;;4910159;28;20826;-85
2022/01/25 17:19:29;;;;;;;;;;;4.60;99.90;;;;;;4910721;28;20012;-85
2022/01/25 17:21:57;;;;;;;;;;;4.60;99.90;;;;;;4916226;28;19934;-86
2022/01/25 17:24:24;;;;;;;;;;;4.70;99.90;;;;;;4915543;28;19926;-86
2022/01/25 17:26:51;;;;;;;;;;;4.70;99.90;;;;;;4913162;28;19930;-86
2022/01/25 17:29:21;;;;;;;;;;;4.80;99.90;;;;;;4899315;28;20009;-86
2022/01/25 17:31:47;;;;;;;;;;;5.40;99.90;;;;;;4913196;28;19922;-85
2022/01/25 17:34:15;;;;;;;;;;;4.90;99.90;;;;;;4911452;28;19934;-85
2022/01/25 17:36:42;;;;;;;;;;;4.90;99.90;;;;;;4919195;28;19930;-86
2022/01/25 17:39:12;;;;;;;;;;;4.90;99.90;;;;;;4913553;28;20009;-84
2022/01/25 17:41:42;;;;;;;;;;;4.90;99.90;;;;;;4914994;28;19933;-84
2022/01/25 17:44:09;;;;;;;;;;;4.90;99.90;;;;;;4914235;28;19977;-83
2022/01/25 17:46:37;;;;;;;;;;;4.90;99.90;;;;;;4909931;28;19938;-84
2022/01/25 17:49:04;;;;;;;;;;;5.30;99.90;;;;;;4917331;28;19957;-85
2022/01/25 17:51:31;;;;;;;;;;;4.80;99.90;;;;;;4919497;28;19981;-84
2022/01/25 17:53:57;;;;;;;;;;;4.90;99.90;;;;;;4909405;28;20343;-85
2022/01/25 17:56:26;;;;;;;;;;;4.80;99.90;;;;;;4922569;28;21217;-85
2022/01/25 17:58:53;;;;;;;;;;;4.80;99.90;;;;;;4927530;28;19981;-85
2022/01/25 18:01:20;;;;;;;;;;;4.80;99.90;;;;;;4924988;28;19933;-85
2022/01/25 18:03:47;;;;;;;;;;;4.80;99.90;;;;;;4924955;28;19978;-85
2022/01/25 18:06:14;;;;;;;;;;;5.20;99.90;;;;;;4926970;28;20755;-86
2022/01/25 18:08:41;;;;;;;;;;;5.00;99.90;;;;;;4927938;28;19926;-85
2022/01/25 18:11:08;;;;;;;;;;;4.80;99.90;;;;;;4920486;28;20663;-85
2022/01/25 18:13:37;;;;;;;;;;;4.90;99.90;;;;;;4926153;28;19934;-84
2022/01/25 18:16:06;;;;;;;;;;;5.00;99.90;;;;;;4919931;28;20400;-86
2022/01/25 18:18:33;;;;;;;;;;;5.00;99.90;;;;;;4916335;28;19993;-86
2022/01/25 18:21:05;;;;;;;;;;;4.90;99.90;;;;;;4919598;28;19926;-86
2022/01/25 18:23:41;;;;;;;;;;;4.50;99.90;;;;;;4924090;28;19934;-85
2022/01/25 18:26:16;;;;;;;;;;;5.00;99.90;;;;;;4924306;28;19931;-84
2022/01/25 18:28:46;;;;;;;;;;;5.00;99.90;;;;;;4920389;28;19980;-85
2022/01/25 18:31:13;;;;;;;;;;;5.20;99.90;;;;;;4920622;28;20301;-86
2022/01/25 18:33:39;;;;;;;;;;;5.20;99.90;;;;;;4920062;28;20054;-84
2022/01/25 18:36:07;;;;;;;;;;;5.00;99.90;;;;;;4923019;28;20687;-85
2022/01/25 18:38:34;;;;;;;;;;;5.00;99.90;;;;;;4926790;28;20084;-84
2022/01/25 18:41:02;;;;;;;;;;;5.00;99.90;;;;;;4924159;28;20029;-84
2022/01/25 18:43:29;;;;;;;;;;;5.00;99.90;;;;;;4914814;28;19944;-86
2022/01/25 18:46:05;;;;;;;;;;;5.00;99.90;;;;;;4940450;28;20067;-85
2022/01/25 18:48:32;;;;;;;;;;;4.90;99.90;;;;;;4979527;28;19926;-86
2022/01/25 18:50:59;;;;;;;;;;;5.20;99.90;;;;;;4979342;28;19930;-86
2022/01/25 18:53:25;;;;;;;;;;;4.90;99.90;;;;;;4979017;28;19957;-86
2022/01/25 18:55:52;;;;;;;;;;;5.00;99.90;;;;;;4963244;28;20340;-86
2022/01/25 18:58:21;;;;;;;;;;;5.00;99.90;;;;;;4977785;28;20344;-86
2022/01/25 19:00:50;;;;;;;;;;;5.00;99.90;;;;;;4978633;28;19926;-87
2022/01/25 19:03:19;;;;;;;;;;;5.00;99.90;;;;;;4979595;28;19933;-85
2022/01/25 19:05:46;;;;;;;;;;;5.20;99.90;;;;;;4978500;28;19930;-85
2022/01/25 19:08:12;;;;;;;;;;;5.10;99.90;;;;;;4979202;28;20355;-88
2022/01/25 19:10:39;;;;;;;;;;;5.10;99.90;;;;;;4978064;28;19954;-89
2022/01/25 19:13:06;;;;;;;;;;;5.10;99.90;;;;;;4978761;28;19972;-87
2022/01/25 19:15:33;;;;;;;;;;;5.20;99.90;;;;;;4978000;28;19962;-86
2022/01/25 19:17:59;;;;;;;;;;;5.10;99.90;;;;;;4977834;28;19934;-85
2022/01/25 19:20:28;;;;;;;;;;;5.10;99.90;;;;;;4977590;28;19926;-86
2022/01/25 19:22:55;;;;;;;;;;;5.00;99.90;;;;;;4977196;28;19934;-85
2022/01/25 19:25:21;;;;;;;;;;;5.00;99.90;;;;;;4977565;28;19973;-87
2022/01/25 19:27:48;;;;;;;;;;;4.90;99.90;;;;;;4978178;28;19982;-86
2022/01/25 19:30:17;;;;;;;;;;;4.90;99.90;;;;;;4977721;28;20431;-86
2022/01/25 19:32:45;;;;;;;;;;;4.90;99.90;;;;;;4977218;28;19926;-87
2022/01/25 19:35:13;;;;;;;;;;;4.90;99.90;;;;;;4977944;28;19926;-85
2022/01/25 19:37:41;;;;;;;;;;;4.90;99.90;;;;;;4979326;28;20337;-87
2022/01/25 19:40:08;;;;;;;;;;;5.00;99.90;;;;;;4976766;28;19937;-87
2022/01/25 19:42:35;;;;;;;;;;;5.00;99.90;;;;;;4977225;28;19980;-85
2022/01/25 19:45:03;;;;;;;;;;;4.90;99.90;;;;;;4977321;28;19965;-86
2022/01/25 19:47:30;;;;;;;;;;;5.00;99.90;;;;;;4977531;28;19972;-86
2022/01/25 19:49:57;;;;;;;;;;;4.90;99.90;;;;;;4976871;28;20067;-86
2022/01/25 19:52:30;;;;;;;;;;;4.90;99.90;;;;;;4977967;28;19926;-86
2022/01/25 19:54:58;;;;;;;;;;;5.10;99.90;;;;;;4977017;28;19930;-86
2022/01/25 19:57:30;;;;;;;;;;;4.90;99.90;;;;;;4977601;28;19973;-85
2022/01/25 19:59:57;;;;;;;;;;;4.80;99.90;;;;;;4977091;28;19981;-86
2022/01/25 20:02:24;;;;;;;;;;;4.90;99.90;;;;;;4976544;28;19950;-86
2022/01/25 20:04:51;;;;;;;;;;;4.90;99.90;;;;;;4979484;28;19930;-85
2022/01/25 20:07:17;;;;;;;;;;;5.10;99.90;;;;;;4975884;28;19934;-87
2022/01/25 20:09:47;;;;;;;;;;;5.20;99.90;;;;;;4976427;28;19973;-87
2022/01/25 20:12:16;;;;;;;;;;;5.20;99.90;;;;;;4975710;28;19969;-86
2022/01/25 20:14:43;;;;;;;;;;;5.10;99.90;;;;;;4975975;28;19932;-88
2022/01/25 20:17:11;;;;;;;;;;;5.10;99.90;;;;;;4979731;28;19926;-85
2022/01/25 20:19:40;;;;;;;;;;;5.10;99.90;;;;;;4979791;28;19933;-87
2022/01/25 20:22:12;;;;;;;;;;;5.00;99.90;;;;;;4980576;28;19926;-85
2022/01/25 20:24:46;;;;;;;;;;;5.00;99.90;;;;;;4977823;28;19930;-87
2022/01/25 20:27:23;;;;;;;;;;;5.00;99.90;;;;;;4959023;28;19927;-86
2022/01/25 20:29:55;;;;;;;;;;;4.90;99.90;;;;;;4975702;28;19963;-86
2022/01/25 20:32:26;;;;;;;;;;;5.00;99.90;;;;;;4976415;28;19926;-87
2022/01/25 20:34:56;;;;;;;;;;;4.90;99.90;;;;;;4975325;28;19941;-86
2022/01/25 20:37:24;;;;;;;;;;;4.90;99.90;;;;;;4976701;28;19930;-86
2022/01/25 20:39:51;;;;;;;;;;;4.40;99.90;;;;;;4975534;28;20336;-85
2022/01/25 20:42:19;;;;;;;;;;;4.90;99.90;;;;;;4976339;28;19930;-86
2022/01/25 20:44:46;;;;;;;;;;;4.90;99.90;;;;;;4976447;28;19926;-86
2022/01/25 20:47:13;;;;;;;;;;;5.00;99.90;;;;;;4976554;28;20339;-86
2022/01/25 20:49:39;;;;;;;;;;;4.90;99.90;;;;;;4975940;28;19926;-86
2022/01/25 20:52:07;;;;;;;;;;;4.90;99.90;;;;;;4974837;28;19926;-87
2022/01/25 20:54:34;;;;;;;;;;;6.00;99.90;;;;;;4976311;28;19925;-86
2022/01/25 20:57:01;;;;;;;;;;;4.90;99.90;;;;;;4975528;28;20380;-85
2022/01/25 20:59:31;;;;;;;;;;;4.90;99.90;;;;;;4976410;28;19926;-86
2022/01/25 21:01:59;;;;;;;;;;;4.90;99.90;;;;;;4976218;28;19926;-86
2022/01/25 21:07:12;;;;;;;;;;;4.90;99.90;;;;;;4951591;28;19926;-86
2022/01/25 21:09:39;;;;;;;;;;;5.10;99.90;;;;;;4975631;28;20304;-86
2022/01/25 21:12:07;;;;;;;;;;;4.90;99.90;;;;;;4975308;28;20373;-86
2022/01/25 21:14:36;;;;;;;;;;;4.90;99.90;;;;;;4976162;28;19930;-87
2022/01/25 21:17:03;;;;;;;;;;;4.90;99.90;;;;;;4976207;28;20369;-86
2022/01/25 21:19:31;;;;;;;;;;;4.90;99.90;;;;;;4975515;28;20305;-86
2022/01/25 21:21:58;;;;;;;;;;;5.00;99.90;;;;;;4976071;28;20013;-86
2022/01/25 21:24:25;;;;;;;;;;;5.10;99.90;;;;;;4975580;28;19980;-86
2022/01/25 21:26:52;;;;;;;;;;;5.30;99.90;;;;;;4975905;28;19930;-86
2022/01/25 21:29:19;;;;;;;;;;;5.00;99.90;;;;;;4975017;28;19977;-85
2022/01/25 21:31:47;;;;;;;;;;;5.10;99.90;;;;;;4976263;28;20332;-86
2022/01/25 21:34:14;;;;;;;;;;;5.00;99.90;;;;;;4976155;28;19926;-86
2022/01/25 21:36:42;;;;;;;;;;;4.10;99.90;;;;;;4975957;28;19937;-85
2022/01/25 21:39:09;;;;;;;;;;;5.10;99.90;;;;;;4975883;28;19926;-87
2022/01/25 21:41:36;;;;;;;;;;;5.20;99.90;;;;;;4975253;28;20269;-86
2022/01/25 21:44:04;;;;;;;;;;;5.30;99.90;;;;;;4975508;28;20329;-87
2022/01/25 21:46:31;;;;;;;;;;;5.30;99.90;;;;;;4975992;28;19984;-87
2022/01/25 21:49:00;;;;;;;;;;;5.30;99.90;;;;;;4975841;28;19954;-86
2022/01/25 21:51:27;;;;;;;;;;;5.30;99.90;;;;;;4975629;28;19933;-88
2022/01/25 21:53:54;;;;;;;;;;;4.60;99.90;;;;;;4975498;28;19950;-87
2022/01/25 21:56:21;;;;;;;;;;;5.30;99.90;;;;;;4975189;28;19981;-86
2022/01/25 21:58:47;;;;;;;;;;;5.30;99.90;;;;;;4975202;28;19926;-87
2022/01/25 22:01:14;;;;;;;;;;;5.30;99.90;;;;;;4975973;28;19926;-87
2022/01/25 22:03:49;;;;;;;;;;;5.30;99.90;;;;;;4977596;28;19930;-86
2022/01/25 22:06:23;;;;;;;;;;;5.30;99.90;;;;;;4979786;28;19925;-86
2022/01/25 22:08:53;;;;;;;;;;;5.30;99.90;;;;;;4978981;28;19926;-86
2022/01/25 22:11:22;;;;;;;;;;;5.30;99.90;;;;;;4981240;28;19926;-86
2022/01/25 22:13:57;;;;;;;;;;;5.40;99.90;;;;;;4982150;28;19933;-85
2022/01/25 22:16:24;;;;;;;;;;;5.20;99.90;;;;;;4981701;28;19926;-86
2022/01/25 22:18:51;;;;;;;;;;;5.20;99.90;;;;;;4980150;28;19969;-87
2022/01/25 22:21:20;;;;;;;;;;;5.50;99.90;;;;;;4978741;28;19926;-86
2022/01/25 22:23:46;;;;;;;;;;;5.30;99.90;;;;;;4978816;28;19927;-85
2022/01/25 22:26:15;;;;;;;;;;;5.30;99.90;;;;;;4978859;28;19926;-87
2022/01/25 22:28:43;;;;;;;;;;;5.30;99.90;;;;;;4979327;28;19929;-87
2022/01/25 22:31:10;;;;;;;;;;;5.30;99.90;;;;;;4978822;28;19933;-87
2022/01/25 22:33:36;;;;;;;;;;;5.30;99.90;;;;;;4978494;28;19926;-86
2022/01/25 22:36:03;;;;;;;;;;;5.30;99.90;;;;;;4978412;28;19934;-86
2022/01/25 22:38:32;;;;;;;;;;;5.20;99.90;;;;;;4979129;28;19926;-87
2022/01/25 22:40:58;;;;;;;;;;;4.70;99.90;;;;;;4977817;28;19926;-88
2022/01/25 22:43:32;;;;;;;;;;;5.20;99.90;;;;;;4978294;28;19962;-86
2022/01/25 22:46:00;;;;;;;;;;;5.40;99.90;;;;;;4978340;28;20025;-87
2022/01/25 22:48:34;;;;;;;;;;;5.20;99.90;;;;;;4978032;28;20025;-87
2022/01/25 22:51:01;;;;;;;;;;;5.20;99.90;;;;;;4977277;28;19940;-87
2022/01/25 22:53:28;;;;;;;;;;;5.20;99.90;;;;;;4978610;28;19926;-86
2022/01/25 22:55:56;;;;;;;;;;;5.20;99.90;;;;;;4977492;28;19969;-86
2022/01/25 22:58:23;;;;;;;;;;;5.20;99.90;;;;;;4977894;28;19926;-87
2022/01/25 23:01:02;;;;;;;;;;;5.20;99.90;;;;;;4977440;28;19926;-88
2022/01/25 23:03:29;;;;;;;;;;;5.20;99.90;;;;;;4977628;28;19933;-86
2022/01/25 23:05:56;;;;;;;;;;;5.20;99.90;;;;;;4977952;28;19981;-88
2022/01/25 23:08:23;;;;;;;;;;;5.20;99.90;;;;;;4977832;28;19989;-87
2022/01/25 23:10:50;;;;;;;;;;;5.20;99.90;;;;;;4976692;28;20045;-86
2022/01/25 23:13:38;;;;;;;;;;;5.20;99.90;;;;;;4977826;28;19926;-87
2022/01/25 23:16:08;;;;;;;;;;;5.30;99.90;;;;;;4977090;28;19933;-87
2022/01/25 23:18:41;;;;;;;;;;;5.50;99.90;;;;;;4977172;28;19930;-86
2022/01/25 23:21:08;;;;;;;;;;;5.50;99.90;;;;;;4977753;28;19930;-86
2022/01/25 23:23:35;;;;;;;;;;;5.40;99.90;;;;;;4977724;28;19930;-86
2022/01/25 23:26:06;;;;;;;;;;;5.50;99.90;;;;;;4976841;28;19981;-86
2022/01/25 23:28:38;;;;;;;;;;;5.40;99.90;;;;;;4977111;28;19926;-86
2022/01/25 23:31:12;;;;;;;;;;;4.90;99.90;;;;;;4977351;28;20332;-86
2022/01/25 23:33:47;;;;;;;;;;;5.20;99.90;;;;;;4977281;28;19926;-86
2022/01/25 23:36:21;;;;;;;;;;;5.10;99.90;;;;;;4976929;28;19934;-86
2022/01/25 23:38:52;;;;;;;;;;;5.00;99.90;;;;;;4977214;28;19973;-86
2022/01/25 23:41:24;;;;;;;;;;;4.90;99.90;;;;;;4976634;28;19926;-86
2022/01/25 23:43:56;;;;;;;;;;;4.80;99.90;;;;;;4977025;28;20005;-87
2022/01/25 23:46:29;;;;;;;;;;;4.70;99.90;;;;;;4977213;28;20026;-87
2022/01/25 23:48:59;;;;;;;;;;;4.70;99.90;;;;;;4976798;28;19926;-86
2022/01/25 23:51:38;;;;;;;;;;;4.60;99.90;;;;;;4977380;28;19926;-86
2022/01/25 23:54:21;;;;;;;;;;;4.60;99.90;;;;;;4977137;28;20022;-86
2022/01/25 23:59:51;;;;;;;;;;;4.60;99.90;;;;;;4976951;28;19933;-88
